sensor_id;sensor_type;location;lat;lon;timestamp;pressure;altitude;pressure_sealevel;temperature;humidity
50484;BME280;36409;52.168;20.878;2022-07-25T14:16:13;100290.75;;;32.58;34.49
50484;BME280;36409;52.168;20.878;2022-07-25T14:18:45;100290.61;;;32.59;34.56
50484;BME280;36409;52.168;20.878;2022-07-25T14:21:13;100292.45;;;32.59;34.71
50484;BME280;36409;52.168;20.878;2022-07-25T14:23:42;100286.36;;;32.57;34.38
50484;BME280;36409;52.168;20.878;2022-07-25T14:26:12;100285.17;;;32.51;34.26
50484;BME280;36409;52.168;20.878;2022-07-25T14:28:41;100282.98;;;32.55;34.30
50484;BME280;36409;52.168;20.878;2022-07-25T14:31:12;100287.05;;;32.50;34.42
50484;BME280;36409;52.168;20.878;2022-07-25T14:33:41;100284.67;;;32.39;34.05
50484;BME280;36409;52.168;20.878;2022-07-25T14:36:10;100279.27;;;32.31;34.49
50484;BME280;36409;52.168;20.878;2022-07-25T14:38:39;100268.47;;;32.39;34.29
50484;BME280;36409;52.168;20.878;2022-07-25T14:41:08;100273.88;;;32.31;33.98
50484;BME280;36409;52.168;20.878;2022-07-25T14:43:40;100273.11;;;32.12;33.67
50484;BME280;36409;52.168;20.878;2022-07-25T14:46:09;100263.82;;;32.07;34.05
50484;BME280;36409;52.168;20.878;2022-07-25T14:48:38;100256.23;;;32.10;34.29
50484;BME280;36409;52.168;20.878;2022-07-25T14:51:07;100254.08;;;32.22;34.17
50484;BME280;36409;52.168;20.878;2022-07-25T14:53:36;100250.00;;;32.10;33.78
50484;BME280;36409;52.168;20.878;2022-07-25T14:56:06;100250.45;;;31.88;34.01
50484;BME280;36409;52.168;20.878;2022-07-25T14:58:35;100241.51;;;31.80;34.15
50484;BME280;36409;52.168;20.878;2022-07-25T15:01:05;100240.20;;;31.57;34.05
50484;BME280;36409;52.168;20.878;2022-07-25T15:03:36;100242.16;;;31.39;34.17
50484;BME280;36409;52.168;20.878;2022-07-25T15:06:05;100230.96;;;31.25;34.06
50484;BME280;36409;52.168;20.878;2022-07-25T15:08:37;100230.92;;;31.17;34.43
50484;BME280;36409;52.168;20.878;2022-07-25T15:11:06;100221.00;;;31.00;34.49
50484;BME280;36409;52.168;20.878;2022-07-25T15:13:35;100227.66;;;30.87;34.72
50484;BME280;36409;52.168;20.878;2022-07-25T15:16:04;100220.48;;;30.70;34.61
50484;BME280;36409;52.168;20.878;2022-07-25T15:18:33;100219.08;;;30.47;34.98
50484;BME280;36409;52.168;20.878;2022-07-25T15:21:22;100216.63;;;30.18;34.85
50484;BME280;36409;52.168;20.878;2022-07-25T15:23:52;100215.32;;;30.04;35.06
50484;BME280;36409;52.168;20.878;2022-07-25T15:26:21;100211.98;;;29.92;35.11
50484;BME280;36409;52.168;20.878;2022-07-25T15:28:49;100209.80;;;29.78;35.00
50484;BME280;36409;52.168;20.878;2022-07-25T15:31:18;100200.16;;;29.57;35.49
50484;BME280;36409;52.168;20.878;2022-07-25T15:33:48;100202.51;;;29.42;35.35
50484;BME280;36409;52.168;20.878;2022-07-25T15:36:18;100205.92;;;29.24;35.76
50484;BME280;36409;52.168;20.878;2022-07-25T15:38:47;100203.74;;;29.10;36.04
50484;BME280;36409;52.168;20.878;2022-07-25T15:41:16;100195.42;;;29.03;35.97
50484;BME280;36409;52.168;20.878;2022-07-25T15:43:45;100199.11;;;28.92;35.90
50484;BME280;36409;52.168;20.878;2022-07-25T15:46:14;100195.45;;;28.84;36.16
50484;BME280;36409;52.168;20.878;2022-07-25T15:48:44;100191.66;;;28.76;36.29
50484;BME280;36409;52.168;20.878;2022-07-25T15:51:15;100198.42;;;28.71;36.49
50484;BME280;36409;52.168;20.878;2022-07-25T15:53:45;100192.78;;;28.64;36.38
50484;BME280;36409;52.168;20.878;2022-07-25T15:56:14;100199.84;;;28.55;36.56
50484;BME280;36409;52.168;20.878;2022-07-25T15:58:43;100189.84;;;28.47;36.56
50484;BME280;36409;52.168;20.878;2022-07-25T16:01:12;100189.14;;;28.45;36.88
50484;BME280;36409;52.168;20.878;2022-07-25T16:03:44;100187.01;;;28.39;36.80
50484;BME280;36409;52.168;20.878;2022-07-25T16:06:12;100183.20;;;28.32;37.06
50484;BME280;36409;52.168;20.878;2022-07-25T16:08:47;100185.05;;;28.22;37.01
50484;BME280;36409;52.168;20.878;2022-07-25T16:11:24;100183.93;;;28.14;37.21
50484;BME280;36409;52.168;20.878;2022-07-25T16:13:53;100182.50;;;28.10;37.27
50484;BME280;36409;52.168;20.878;2022-07-25T16:16:22;100179.23;;;28.07;37.29
50484;BME280;36409;52.168;20.878;2022-07-25T16:18:53;100185.42;;;28.07;37.30
50484;BME280;36409;52.168;20.878;2022-07-25T16:21:25;100183.31;;;28.01;37.62
50484;BME280;36409;52.168;20.878;2022-07-25T16:23:54;100178.08;;;27.99;37.57
50484;BME280;36409;52.168;20.878;2022-07-25T16:26:25;100176.80;;;27.94;37.65
50484;BME280;36409;52.168;20.878;2022-07-25T16:28:53;100173.97;;;27.85;37.63
50484;BME280;36409;52.168;20.878;2022-07-25T16:31:26;100170.88;;;27.80;37.76
50484;BME280;36409;52.168;20.878;2022-07-25T16:33:54;100169.59;;;27.74;37.73
50484;BME280;36409;52.168;20.878;2022-07-25T16:36:26;100176.21;;;27.70;37.89
50484;BME280;36409;52.168;20.878;2022-07-25T16:38:58;100166.73;;;27.66;38.24
50484;BME280;36409;52.168;20.878;2022-07-25T16:41:27;100159.27;;;27.60;38.45
50484;BME280;36409;52.168;20.878;2022-07-25T16:43:58;100165.30;;;27.52;38.15
50484;BME280;36409;52.168;20.878;2022-07-25T16:46:30;100165.00;;;27.46;38.27
50484;BME280;36409;52.168;20.878;2022-07-25T16:48:59;100157.48;;;27.39;38.23
50484;BME280;36409;52.168;20.878;2022-07-25T16:51:28;100165.79;;;27.36;38.56
50484;BME280;36409;52.168;20.878;2022-07-25T16:54:03;100159.72;;;27.34;38.54
50484;BME280;36409;52.168;20.878;2022-07-25T16:56:31;100152.09;;;27.29;38.39
50484;BME280;36409;52.168;20.878;2022-07-25T16:59:01;100156.01;;;27.25;38.81
50484;BME280;36409;52.168;20.878;2022-07-25T17:01:36;100156.41;;;27.21;38.86
50484;BME280;36409;52.168;20.878;2022-07-25T17:04:05;100152.59;;;27.13;38.97
50484;BME280;36409;52.168;20.878;2022-07-25T17:06:35;100148.63;;;27.08;38.85
50484;BME280;36409;52.168;20.878;2022-07-25T17:09:04;100143.21;;;26.98;38.98
50484;BME280;36409;52.168;20.878;2022-07-25T17:11:33;100142.78;;;26.93;39.35
50484;BME280;36409;52.168;20.878;2022-07-25T17:14:06;100141.48;;;26.87;39.46
50484;BME280;36409;52.168;20.878;2022-07-25T17:16:35;100132.99;;;26.82;39.21
50484;BME280;36409;52.168;20.878;2022-07-25T17:19:03;100136.04;;;26.77;39.26
50484;BME280;36409;52.168;20.878;2022-07-25T17:21:36;100136.44;;;26.73;39.44
50484;BME280;36409;52.168;20.878;2022-07-25T17:24:06;100136.84;;;26.68;39.47
50484;BME280;36409;52.168;20.878;2022-07-25T17:26:35;100127.91;;;26.58;39.51
50484;BME280;36409;52.168;20.878;2022-07-25T17:29:07;100126.13;;;26.47;39.72
50484;BME280;36409;52.168;20.878;2022-07-25T17:31:36;100118.90;;;26.38;40.03
50484;BME280;36409;52.168;20.878;2022-07-25T17:34:05;100115.20;;;26.29;40.13
50484;BME280;36409;52.168;20.878;2022-07-25T17:36:34;100105.25;;;26.19;40.71
50484;BME280;36409;52.168;20.878;2022-07-25T17:39:03;100101.77;;;26.08;40.80
50484;BME280;36409;52.168;20.878;2022-07-25T17:41:33;100107.03;;;25.98;40.96
50484;BME280;36409;52.168;20.878;2022-07-25T17:44:04;100103.32;;;25.89;41.34
50484;BME280;36409;52.168;20.878;2022-07-25T17:46:39;100099.69;;;25.79;41.73
50484;BME280;36409;52.168;20.878;2022-07-25T17:49:08;100107.63;;;25.69;41.54
50484;BME280;36409;52.168;20.878;2022-07-25T17:51:37;100100.23;;;25.61;42.01
50484;BME280;36409;52.168;20.878;2022-07-25T17:54:05;100103.67;;;25.52;42.61
50484;BME280;36409;52.168;20.878;2022-07-25T17:56:35;100099.91;;;25.43;42.41
50484;BME280;36409;52.168;20.878;2022-07-25T17:59:07;100095.16;;;25.35;42.68
50484;BME280;36409;52.168;20.878;2022-07-25T18:01:36;100102.22;;;25.25;42.74
50484;BME280;36409;52.168;20.878;2022-07-25T18:04:05;100097.62;;;25.16;43.21
50484;BME280;36409;52.168;20.878;2022-07-25T18:06:34;100106.37;;;25.06;43.60
50484;BME280;36409;52.168;20.878;2022-07-25T18:09:03;100095.69;;;24.95;43.24
50484;BME280;36409;52.168;20.878;2022-07-25T18:11:32;100095.09;;;24.80;43.85
50484;BME280;36409;52.168;20.878;2022-07-25T18:14:01;100090.67;;;24.67;44.31
50484;BME280;36409;52.168;20.878;2022-07-25T18:16:33;100088.09;;;24.55;44.39
50484;BME280;36409;52.168;20.878;2022-07-25T18:19:03;100090.03;;;24.41;44.42
50484;BME280;36409;52.168;20.878;2022-07-25T18:21:32;100087.57;;;24.27;44.35
50484;BME280;36409;52.168;20.878;2022-07-25T18:24:01;100087.66;;;24.14;44.90
50484;BME280;36409;52.168;20.878;2022-07-25T18:26:33;100088.34;;;24.04;45.27
50484;BME280;36409;52.168;20.878;2022-07-25T18:29:05;100079.43;;;23.93;45.25
50484;BME280;36409;52.168;20.878;2022-07-25T18:31:35;100078.55;;;23.81;45.20
50484;BME280;36409;52.168;20.878;2022-07-25T18:34:04;100079.33;;;23.70;45.69
50484;BME280;36409;52.168;20.878;2022-07-25T18:36:34;100078.44;;;23.58;46.11
50484;BME280;36409;52.168;20.878;2022-07-25T18:39:05;100073.27;;;23.43;46.34
50484;BME280;36409;52.168;20.878;2022-07-25T18:41:34;100073.28;;;23.31;46.31
50484;BME280;36409;52.168;20.878;2022-07-25T18:44:06;100072.25;;;23.20;46.19
50484;BME280;36409;52.168;20.878;2022-07-25T18:46:35;100076.75;;;23.07;46.45
50484;BME280;36409;52.168;20.878;2022-07-25T18:49:05;100075.70;;;22.96;46.74
50484;BME280;36409;52.168;20.878;2022-07-25T18:51:33;100077.41;;;22.85;47.22
50484;BME280;36409;52.168;20.878;2022-07-25T18:54:04;100076.34;;;22.74;47.52
50484;BME280;36409;52.168;20.878;2022-07-25T18:56:33;100072.63;;;22.64;47.38
50484;BME280;36409;52.168;20.878;2022-07-25T18:59:03;100076.02;;;22.53;47.65
50484;BME280;36409;52.168;20.878;2022-07-25T19:01:33;100068.69;;;22.44;47.92
50484;BME280;36409;52.168;20.878;2022-07-25T19:04:02;100064.81;;;22.35;48.00
50484;BME280;36409;52.168;20.878;2022-07-25T19:06:32;100053.98;;;22.25;48.59
50484;BME280;36409;52.168;20.878;2022-07-25T19:09:01;100054.81;;;22.13;48.58
50484;BME280;36409;52.168;20.878;2022-07-25T19:11:32;100059.05;;;22.02;48.97
50484;BME280;36409;52.168;20.878;2022-07-25T19:14:05;100050.07;;;21.90;49.25
50484;BME280;36409;52.168;20.878;2022-07-25T19:16:35;100049.85;;;21.81;49.38
50484;BME280;36409;52.168;20.878;2022-07-25T19:19:04;100052.06;;;21.74;49.40
50484;BME280;36409;52.168;20.878;2022-07-25T19:21:33;100042.05;;;21.65;49.50
50484;BME280;36409;52.168;20.878;2022-07-25T19:24:06;100044.30;;;21.56;49.94
50484;BME280;36409;52.168;20.878;2022-07-25T19:26:35;100048.44;;;21.48;49.98
50484;BME280;36409;52.168;20.878;2022-07-25T19:29:06;100051.47;;;21.41;50.37
50484;BME280;36409;52.168;20.878;2022-07-25T19:31:36;100041.08;;;21.38;50.40
50484;BME280;36409;52.168;20.878;2022-07-25T19:34:05;100040.50;;;21.33;50.58
50484;BME280;36409;52.168;20.878;2022-07-25T19:36:34;100040.91;;;21.27;50.60
50484;BME280;36409;52.168;20.878;2022-07-25T19:39:04;100039.59;;;21.20;50.58
50484;BME280;36409;52.168;20.878;2022-07-25T19:41:33;100039.80;;;21.17;51.02
50484;BME280;36409;52.168;20.878;2022-07-25T19:44:04;100036.47;;;21.13;50.69
50484;BME280;36409;52.168;20.878;2022-07-25T19:46:35;100037.52;;;21.10;50.80
50484;BME280;36409;52.168;20.878;2022-07-25T19:49:04;100027.97;;;21.08;51.29
50484;BME280;36409;52.168;20.878;2022-07-25T19:51:33;100036.00;;;21.06;50.86
50484;BME280;36409;52.168;20.878;2022-07-25T19:54:03;100041.52;;;21.03;51.06
50484;BME280;36409;52.168;20.878;2022-07-25T19:56:32;100043.53;;;21.00;51.23
50484;BME280;36409;52.168;20.878;2022-07-25T19:59:01;100042.84;;;20.96;51.11
50484;BME280;36409;52.168;20.878;2022-07-25T20:01:34;100042.19;;;20.92;51.33
50484;BME280;36409;52.168;20.878;2022-07-25T20:04:05;100038.98;;;20.87;51.44
50484;BME280;36409;52.168;20.878;2022-07-25T20:06:36;100040.12;;;20.83;51.63
50484;BME280;36409;52.168;20.878;2022-07-25T20:09:05;100042.11;;;20.79;51.76
50484;BME280;36409;52.168;20.878;2022-07-25T20:11:35;100040.66;;;20.74;51.70
50484;BME280;36409;52.168;20.878;2022-07-25T20:14:06;100036.41;;;20.71;52.10
50484;BME280;36409;52.168;20.878;2022-07-25T20:16:36;100034.02;;;20.66;51.85
50484;BME280;36409;52.168;20.878;2022-07-25T20:19:06;100033.28;;;20.64;51.88
50484;BME280;36409;52.168;20.878;2022-07-25T20:21:37;100030.05;;;20.59;52.12
50484;BME280;36409;52.168;20.878;2022-07-25T20:24:07;100033.83;;;20.55;52.14
50484;BME280;36409;52.168;20.878;2022-07-25T20:26:36;100033.16;;;20.51;52.33
50484;BME280;36409;52.168;20.878;2022-07-25T20:29:05;100033.55;;;20.45;52.39
50484;BME280;36409;52.168;20.878;2022-07-25T20:31:36;100034.67;;;20.41;52.49
50484;BME280;36409;52.168;20.878;2022-07-25T20:34:05;100032.30;;;20.36;52.43
50484;BME280;36409;52.168;20.878;2022-07-25T20:36:34;100042.42;;;20.30;52.66
50484;BME280;36409;52.168;20.878;2022-07-25T20:39:06;100034.85;;;20.24;52.64
50484;BME280;36409;52.168;20.878;2022-07-25T20:41:35;100035.30;;;20.16;52.96
50484;BME280;36409;52.168;20.878;2022-07-25T20:44:09;100031.22;;;20.10;52.88
50484;BME280;36409;52.168;20.878;2022-07-25T20:46:37;100027.91;;;20.06;53.16
50484;BME280;36409;52.168;20.878;2022-07-25T20:49:07;100032.55;;;20.03;53.13
50484;BME280;36409;52.168;20.878;2022-07-25T20:51:38;100029.20;;;19.99;53.05
50484;BME280;36409;52.168;20.878;2022-07-25T20:54:07;100037.41;;;19.95;53.52
50484;BME280;36409;52.168;20.878;2022-07-25T20:56:36;100041.00;;;19.94;54.02
50484;BME280;36409;52.168;20.878;2022-07-25T20:59:06;100041.20;;;19.90;53.71
50484;BME280;36409;52.168;20.878;2022-07-25T21:01:38;100052.73;;;19.89;54.02
50484;BME280;36409;52.168;20.878;2022-07-25T21:04:07;100053.78;;;19.87;53.93
50484;BME280;36409;52.168;20.878;2022-07-25T21:06:36;100055.62;;;19.85;54.29
50484;BME280;36409;52.168;20.878;2022-07-25T21:09:05;100053.14;;;19.82;54.30
50484;BME280;36409;52.168;20.878;2022-07-25T21:11:36;100055.13;;;19.78;54.17
50484;BME280;36409;52.168;20.878;2022-07-25T21:14:08;100056.33;;;19.72;54.23
50484;BME280;36409;52.168;20.878;2022-07-25T21:16:37;100053.17;;;19.66;54.59
50484;BME280;36409;52.168;20.878;2022-07-25T21:19:06;100056.16;;;19.59;54.70
50484;BME280;36409;52.168;20.878;2022-07-25T21:21:36;100055.48;;;19.56;54.84
50484;BME280;36409;52.168;20.878;2022-07-25T21:24:06;100065.39;;;19.52;54.79
50484;BME280;36409;52.168;20.878;2022-07-25T21:26:34;100062.08;;;19.49;54.79
50484;BME280;36409;52.168;20.878;2022-07-25T21:29:08;100064.89;;;19.45;55.25
50484;BME280;36409;52.168;20.878;2022-07-25T21:31:40;100056.27;;;19.42;55.03
50484;BME280;36409;52.168;20.878;2022-07-25T21:34:11;100070.60;;;19.38;55.45
50484;BME280;36409;52.168;20.878;2022-07-25T21:36:47;100056.80;;;19.33;55.83
50484;BME280;36409;52.168;20.878;2022-07-25T21:39:17;100052.59;;;19.28;55.65
50484;BME280;36409;52.168;20.878;2022-07-25T21:41:48;100055.59;;;19.22;55.71
50484;BME280;36409;52.168;20.878;2022-07-25T21:44:23;100060.27;;;19.17;55.92
50484;BME280;36409;52.168;20.878;2022-07-25T21:46:52;100064.98;;;19.12;55.86
50484;BME280;36409;52.168;20.878;2022-07-25T21:49:21;100058.23;;;19.06;56.26
50484;BME280;36409;52.168;20.878;2022-07-25T21:52:15;100073.64;;;18.98;56.32
50484;BME280;36409;52.168;20.878;2022-07-25T21:54:46;100067.67;;;18.94;56.30
50484;BME280;36409;52.168;20.878;2022-07-25T21:57:16;100068.91;;;18.87;56.66
50484;BME280;36409;52.168;20.878;2022-07-25T21:59:47;100055.85;;;18.84;56.77
50484;BME280;36409;52.168;20.878;2022-07-25T22:02:16;100061.14;;;18.84;56.91
50484;BME280;36409;52.168;20.878;2022-07-25T22:04:46;100053.30;;;18.82;56.83
50484;BME280;36409;52.168;20.878;2022-07-25T22:07:15;100052.44;;;18.82;57.09
50484;BME280;36409;52.168;20.878;2022-07-25T22:09:47;100051.69;;;18.80;57.46
50484;BME280;36409;52.168;20.878;2022-07-25T22:12:15;100042.20;;;18.76;57.43
50484;BME280;36409;52.168;20.878;2022-07-25T22:14:45;100051.16;;;18.73;57.49
50484;BME280;36409;52.168;20.878;2022-07-25T22:17:14;100053.02;;;18.71;57.36
50484;BME280;36409;52.168;20.878;2022-07-25T22:19:43;100045.16;;;18.70;57.96
50484;BME280;36409;52.168;20.878;2022-07-25T22:22:12;100044.47;;;18.66;57.66
50484;BME280;36409;52.168;20.878;2022-07-25T22:24:41;100033.21;;;18.62;58.03
50484;BME280;36409;52.168;20.878;2022-07-25T22:27:14;100033.46;;;18.58;57.92
50484;BME280;36409;52.168;20.878;2022-07-25T22:29:43;100026.62;;;18.53;58.26
50484;BME280;36409;52.168;20.878;2022-07-25T22:32:13;100024.06;;;18.52;58.15
50484;BME280;36409;52.168;20.878;2022-07-25T22:34:43;100026.80;;;18.50;58.44
50484;BME280;36409;52.168;20.878;2022-07-25T22:37:13;100033.02;;;18.49;58.56
50484;BME280;36409;52.168;20.878;2022-07-25T22:39:41;100026.02;;;18.48;58.82
50484;BME280;36409;52.168;20.878;2022-07-25T22:42:15;100017.32;;;18.46;58.63
50484;BME280;36409;52.168;20.878;2022-07-25T22:44:46;100018.25;;;18.45;58.49
50484;BME280;36409;52.168;20.878;2022-07-25T22:47:15;100014.77;;;18.45;58.80
50484;BME280;36409;52.168;20.878;2022-07-25T22:49:45;100010.42;;;18.44;59.01
50484;BME280;36409;52.168;20.878;2022-07-25T22:52:14;100012.28;;;18.42;59.21
50484;BME280;36409;52.168;20.878;2022-07-25T22:54:46;100010.66;;;18.39;58.92
50484;BME280;36409;52.168;20.878;2022-07-25T22:57:14;100003.73;;;18.36;59.31
50484;BME280;36409;52.168;20.878;2022-07-25T22:59:43;100012.58;;;18.35;59.35
50484;BME280;36409;52.168;20.878;2022-07-25T23:02:16;100012.77;;;18.32;59.32
50484;BME280;36409;52.168;20.878;2022-07-25T23:04:45;100001.52;;;18.29;59.27
50484;BME280;36409;52.168;20.878;2022-07-25T23:07:14;99999.86;;;18.26;59.77
50484;BME280;36409;52.168;20.878;2022-07-25T23:09:43;99997.31;;;18.25;59.78
50484;BME280;36409;52.168;20.878;2022-07-25T23:12:12;99983.23;;;18.24;59.57
50484;BME280;36409;52.168;20.878;2022-07-25T23:14:41;99987.77;;;18.22;59.95
50484;BME280;36409;52.168;20.878;2022-07-25T23:17:11;99980.00;;;18.19;59.62
50484;BME280;36409;52.168;20.878;2022-07-25T23:19:49;99974.03;;;18.15;60.01
50484;BME280;36409;52.168;20.878;2022-07-25T23:22:20;99971.45;;;18.14;60.11
50484;BME280;36409;52.168;20.878;2022-07-25T23:24:50;99971.69;;;18.09;59.95
50484;BME280;36409;52.168;20.878;2022-07-25T23:27:22;99963.08;;;18.05;60.35
50484;BME280;36409;52.168;20.878;2022-07-25T23:29:51;99955.30;;;18.02;59.92
50484;BME280;36409;52.168;20.878;2022-07-25T23:32:22;99962.39;;;18.02;60.48
50484;BME280;36409;52.168;20.878;2022-07-25T23:34:50;99955.30;;;18.02;60.61
50484;BME280;36409;52.168;20.878;2022-07-25T23:37:19;99950.95;;;18.01;60.17
50484;BME280;36409;52.168;20.878;2022-07-25T23:39:48;99944.93;;;17.99;60.60
50484;BME280;36409;52.168;20.878;2022-07-25T23:42:21;99950.27;;;17.98;60.54
50484;BME280;36409;52.168;20.878;2022-07-25T23:44:51;99941.63;;;17.94;60.74
50484;BME280;36409;52.168;20.878;2022-07-25T23:47:21;99943.42;;;17.94;61.01
50484;BME280;36409;52.168;20.878;2022-07-25T23:50:10;99945.20;;;17.93;60.56
50484;BME280;36409;52.168;20.878;2022-07-25T23:52:40;99954.05;;;17.92;60.65
50484;BME280;36409;52.168;20.878;2022-07-25T23:55:12;99949.64;;;17.93;60.78
50484;BME280;36409;52.168;20.878;2022-07-25T23:57:41;99946.06;;;17.94;61.37
